createdAt,value
2023-04-05T00:00:59.358Z,51.16
2023-04-05T00:03:26.440Z,51.55
2023-04-05T00:05:54.845Z,51.71
2023-04-05T00:08:24.411Z,52.14
2023-04-05T00:10:51.160Z,52.36
2023-04-05T00:13:18.407Z,52.46
2023-04-05T00:15:45.090Z,52.36
2023-04-05T00:18:22.056Z,52.78
2023-04-05T00:20:52.738Z,52.80
2023-04-05T00:23:21.287Z,52.65
2023-04-05T00:25:48.238Z,52.91
2023-04-05T00:28:14.835Z,52.62
2023-04-05T00:30:41.827Z,53.17
2023-04-05T00:33:08.764Z,52.56
2023-04-05T00:35:35.602Z,52.79
2023-04-05T00:38:02.759Z,53.00
2023-04-05T00:40:31.864Z,52.55
2023-04-05T00:42:58.501Z,52.42
2023-04-05T00:45:25.284Z,52.55
2023-04-05T00:47:52.501Z,52.46
2023-04-05T00:50:19.483Z,52.75
2023-04-05T00:52:46.271Z,52.91
2023-04-05T00:55:13.783Z,52.96
2023-04-05T00:57:41.486Z,52.82
2023-04-05T01:00:12.234Z,53.08
2023-04-05T01:03:03.254Z,52.95
2023-04-05T01:05:41.288Z,53.53
2023-04-05T01:08:15.134Z,53.40
2023-04-05T01:10:47.404Z,53.44
2023-04-05T01:13:16.825Z,53.51
2023-04-05T01:15:43.577Z,53.83
2023-04-05T01:18:14.087Z,54.12
2023-04-05T01:20:53.205Z,54.13
2023-04-05T01:23:41.612Z,54.17
2023-04-05T01:26:08.221Z,54.26
2023-04-05T01:28:49.715Z,54.53
2023-04-05T01:31:42.053Z,55.04
2023-04-05T01:34:26.742Z,55.58
2023-04-05T01:36:58.996Z,55.81
2023-04-05T01:39:27.484Z,55.71
2023-04-05T01:42:00.218Z,56.16
2023-04-05T01:44:27.392Z,56.61
2023-04-05T01:46:54.023Z,56.83
2023-04-05T01:49:21.197Z,56.96
2023-04-05T01:51:47.762Z,56.83
2023-04-05T01:54:14.546Z,57.22
2023-04-05T01:56:41.187Z,56.73
2023-04-05T01:59:07.882Z,56.92
2023-04-05T02:01:34.882Z,57.04
2023-04-05T02:04:01.896Z,56.62
2023-04-05T02:06:28.866Z,56.96
2023-04-05T02:08:55.442Z,57.06
2023-04-05T02:11:22.064Z,57.38
2023-04-05T02:13:48.644Z,57.34
2023-04-05T02:16:15.720Z,57.62
2023-04-05T02:18:43.783Z,57.64
2023-04-05T02:21:17.428Z,57.79
2023-04-05T02:23:44.237Z,57.96
2023-04-05T02:26:11.484Z,58.19
2023-04-05T02:28:38.234Z,58.39
2023-04-05T02:31:12.920Z,58.44
2023-04-05T02:33:40.975Z,58.47
2023-04-05T02:36:11.643Z,58.40
2023-04-05T02:38:38.369Z,58.81
2023-04-05T02:41:09.053Z,58.69
2023-04-05T02:43:35.858Z,58.63
2023-04-05T02:46:02.542Z,58.37
2023-04-05T02:48:31.841Z,58.56
2023-04-05T02:50:58.435Z,59.19
2023-04-05T02:53:25.380Z,58.70
2023-04-05T02:55:57.017Z,58.89
2023-04-05T02:58:24.263Z,59.15
2023-04-05T03:00:53.599Z,59.26
2023-04-05T03:03:23.980Z,59.16
2023-04-05T03:06:00.610Z,59.57
2023-04-05T03:08:28.927Z,60.07
2023-04-05T03:10:55.596Z,60.09
2023-04-05T03:13:22.212Z,60.13
2023-04-05T03:15:48.836Z,60.25
2023-04-05T03:18:16.702Z,60.14
2023-04-05T03:20:43.341Z,60.13
2023-04-05T03:23:11.388Z,60.29
2023-04-05T03:25:38.630Z,60.33
2023-04-05T03:28:06.110Z,59.90
2023-04-05T03:30:34.555Z,60.29
2023-04-05T03:33:03.199Z,60.26
2023-04-05T03:35:30.371Z,60.01
2023-04-05T03:37:57.350Z,60.34
2023-04-05T03:40:24.450Z,60.66
2023-04-05T03:42:51.402Z,60.45
2023-04-05T03:45:23.080Z,61.19
2023-04-05T03:47:51.168Z,61.30
2023-04-05T03:50:18.170Z,61.30
2023-04-05T03:52:45.196Z,61.38
2023-04-05T03:55:13.604Z,61.11
2023-04-05T03:57:40.818Z,61.38
2023-04-05T04:00:17.889Z,61.80
2023-04-05T04:02:48.707Z,62.13
2023-04-05T04:05:16.772Z,62.45
2023-04-05T04:07:44.568Z,62.15
2023-04-05T04:10:16.110Z,62.13
2023-04-05T04:12:42.687Z,62.11
2023-04-05T04:15:09.906Z,62.10
2023-04-05T04:17:37.818Z,62.47
2023-04-05T04:20:11.245Z,62.12
2023-04-05T04:22:40.682Z,62.95
2023-04-05T04:25:12.874Z,62.73
2023-04-05T04:27:42.268Z,62.93
2023-04-05T04:30:11.242Z,62.93
2023-04-05T04:32:53.189Z,63.17
2023-04-05T04:35:25.218Z,63.69
2023-04-05T04:38:03.012Z,63.26
2023-04-05T04:40:40.401Z,63.55
2023-04-05T04:43:14.755Z,63.65
2023-04-05T04:45:42.147Z,63.73
2023-04-05T04:48:11.486Z,63.35
2023-04-05T04:50:39.381Z,63.14
2023-04-05T04:53:06.824Z,63.27
2023-04-05T04:55:33.742Z,63.76
2023-04-05T04:58:00.426Z,63.87
2023-04-05T05:00:27.125Z,64.03
2023-04-05T05:02:53.833Z,63.58
2023-04-05T05:05:22.943Z,63.90
2023-04-05T05:07:50.030Z,64.08
2023-04-05T05:10:16.872Z,63.94
2023-04-05T05:12:43.694Z,63.99
2023-04-05T05:15:11.278Z,63.69
2023-04-05T05:17:39.441Z,63.84
2023-04-05T05:20:10.561Z,63.57
2023-04-05T05:22:38.393Z,63.56
2023-04-05T05:25:06.657Z,63.80
2023-04-05T05:27:36.506Z,63.57
2023-04-05T05:30:04.038Z,63.61
2023-04-05T05:32:31.038Z,63.91
2023-04-05T05:34:57.788Z,63.69
2023-04-05T05:37:34.280Z,63.70
2023-04-05T05:40:01.051Z,63.58
2023-04-05T05:42:27.866Z,63.37
2023-04-05T05:44:54.554Z,63.05
2023-04-05T05:47:21.233Z,62.35
2023-04-05T05:49:49.780Z,62.29
2023-04-05T05:52:17.182Z,61.27
2023-04-05T05:54:43.777Z,59.80
2023-04-05T05:57:10.545Z,58.97
2023-04-05T05:59:37.238Z,58.94
2023-04-05T06:02:04.048Z,59.20
2023-04-05T06:04:30.734Z,59.46
2023-04-05T06:06:58.107Z,59.46
2023-04-05T06:09:24.814Z,60.28
2023-04-05T06:11:56.407Z,60.09
2023-04-05T06:14:24.797Z,60.31
2023-04-05T06:16:51.453Z,59.81
2023-04-05T06:19:18.106Z,59.24
2023-04-05T06:21:44.841Z,58.77
2023-04-05T06:24:11.577Z,58.44
2023-04-05T06:26:38.176Z,58.33
2023-04-05T06:29:04.855Z,58.22
2023-04-05T06:31:33.341Z,57.54
2023-04-05T06:34:00.364Z,57.63
2023-04-05T06:36:27.659Z,57.29
2023-04-05T06:38:54.689Z,56.98
2023-04-05T06:41:21.499Z,56.86
2023-04-05T06:43:48.121Z,56.65
2023-04-05T06:46:14.731Z,56.13
2023-04-05T06:48:42.743Z,55.97
2023-04-05T06:51:09.325Z,55.52
2023-04-05T06:53:36.710Z,55.75
2023-04-05T06:56:03.419Z,55.59
2023-04-05T06:58:30.558Z,55.33
2023-04-05T07:00:57.686Z,55.49
2023-04-05T07:03:24.313Z,54.69
2023-04-05T07:05:57.006Z,54.27
2023-04-05T07:08:24.130Z,54.17
2023-04-05T07:10:51.632Z,53.58
2023-04-05T07:13:19.450Z,52.87
2023-04-05T07:15:46.454Z,52.19
2023-04-05T07:18:16.087Z,51.48
2023-04-05T07:20:43.317Z,51.01
2023-04-05T07:23:10.192Z,50.61
2023-04-05T07:25:36.963Z,49.74
2023-04-05T07:28:03.583Z,49.99
2023-04-05T07:30:32.139Z,49.85
2023-04-05T07:32:59.214Z,48.28
2023-04-05T07:35:25.912Z,48.23
2023-04-05T07:37:52.938Z,48.45
2023-04-05T07:40:19.720Z,48.04
2023-04-05T07:42:46.312Z,48.56
2023-04-05T07:45:13.007Z,48.38
2023-04-05T07:47:39.694Z,48.17
2023-04-05T07:50:07.532Z,47.70
2023-04-05T07:52:34.144Z,47.89
2023-04-05T07:55:00.724Z,48.92
2023-04-05T07:57:27.563Z,48.36
2023-04-05T07:59:55.919Z,47.65
2023-04-05T08:02:22.670Z,47.27
2023-04-05T08:04:49.387Z,47.58
2023-04-05T08:07:16.097Z,47.03
2023-04-05T08:09:42.704Z,47.22
2023-04-05T08:12:11.578Z,47.17
2023-04-05T08:14:38.356Z,47.01
2023-04-05T08:17:05.013Z,46.82
2023-04-05T08:19:31.589Z,46.84
2023-04-05T08:21:58.221Z,46.56
2023-04-05T08:24:24.926Z,46.34
2023-04-05T08:26:51.654Z,45.96
2023-04-05T08:29:18.325Z,46.07
2023-04-05T08:31:45.015Z,45.56
2023-04-05T08:34:12.950Z,45.52
2023-04-05T08:36:39.737Z,45.74
2023-04-05T08:39:06.394Z,45.59
2023-04-05T08:41:37.548Z,45.85
2023-04-05T08:44:05.790Z,46.16
2023-04-05T08:46:36.400Z,45.88
2023-04-05T08:49:07.683Z,45.18
2023-04-05T08:51:37.652Z,45.54
2023-04-05T08:54:05.150Z,45.40
2023-04-05T08:56:33.853Z,44.74
2023-04-05T08:59:03.895Z,45.22
2023-04-05T09:01:32.096Z,45.08
2023-04-05T09:04:06.756Z,45.08
2023-04-05T09:06:36.860Z,45.49
2023-04-05T09:09:07.884Z,45.30
2023-04-05T09:11:35.793Z,44.71
2023-04-05T09:14:06.406Z,44.09
2023-04-05T09:16:39.154Z,44.20
2023-04-05T09:19:06.916Z,44.07
2023-04-05T09:21:58.220Z,43.52
2023-04-05T09:24:41.947Z,43.89
2023-04-05T09:27:14.354Z,44.12
2023-04-05T09:29:42.695Z,43.95
2023-04-05T09:32:11.519Z,43.74
2023-04-05T09:34:39.278Z,43.76
2023-04-05T09:37:20.399Z,43.60
2023-04-05T09:39:54.301Z,43.12
2023-04-05T09:42:23.499Z,42.45
2023-04-05T09:45:05.949Z,41.97
2023-04-05T09:47:35.258Z,42.11
2023-04-05T09:50:06.783Z,41.95
2023-04-05T09:52:33.741Z,41.99
2023-04-05T09:55:03.096Z,41.94
2023-04-05T09:57:34.410Z,41.54
2023-04-05T10:00:01.365Z,41.34
2023-04-05T10:02:39.985Z,41.36
2023-04-05T10:05:08.256Z,42.11
2023-04-05T10:07:35.139Z,41.76
2023-04-05T10:10:02.257Z,41.68
2023-04-05T10:12:29.227Z,41.70
2023-04-05T10:14:57.232Z,41.62
2023-04-05T10:17:29.995Z,41.43
2023-04-05T10:20:17.010Z,41.14
2023-04-05T10:22:52.541Z,40.64
2023-04-05T10:25:53.530Z,39.72
2023-04-05T10:28:37.595Z,40.33
2023-04-05T10:31:34.220Z,40.65
2023-04-05T10:34:08.672Z,40.22
2023-04-05T10:36:46.348Z,39.99
2023-04-05T10:39:23.372Z,39.60
2023-04-05T10:41:54.812Z,39.46
2023-04-05T10:44:26.161Z,39.94
2023-04-05T10:46:55.374Z,39.49
2023-04-05T10:49:35.926Z,39.70
2023-04-05T10:52:03.867Z,39.67
2023-04-05T10:54:34.046Z,39.52
2023-04-05T10:57:03.520Z,40.51
2023-04-05T10:59:40.319Z,38.79
2023-04-05T11:02:07.750Z,38.40
2023-04-05T11:04:35.361Z,38.38
2023-04-05T11:07:20.471Z,38.02
2023-04-05T11:10:04.668Z,37.93
2023-04-05T11:12:46.611Z,38.99
2023-04-05T11:15:32.874Z,38.79
2023-04-05T11:18:07.396Z,37.26
2023-04-05T11:20:46.269Z,37.61
2023-04-05T11:23:15.840Z,37.55
2023-04-05T11:25:47.768Z,38.56
2023-04-05T11:28:32.006Z,37.33
2023-04-05T11:31:12.529Z,37.41
2023-04-05T11:33:41.913Z,38.36
2023-04-05T11:36:10.135Z,37.17
2023-04-05T11:38:37.460Z,37.43
2023-04-05T11:41:21.328Z,36.94
2023-04-05T11:43:48.278Z,37.19
2023-04-05T11:46:15.799Z,37.54
2023-04-05T11:48:42.761Z,36.67
2023-04-05T11:51:10.961Z,36.73
2023-04-05T11:53:38.493Z,34.96
2023-04-05T11:56:15.417Z,36.28
2023-04-05T11:58:43.032Z,36.84
2023-04-05T12:01:09.896Z,37.31
2023-04-05T12:03:37.603Z,37.46
2023-04-05T12:06:06.196Z,37.23
2023-04-05T12:08:50.576Z,37.39
2023-04-05T12:11:41.225Z,37.86
2023-04-05T12:14:08.130Z,37.50
2023-04-05T12:16:34.771Z,37.67
2023-04-05T12:19:01.640Z,36.80
2023-04-05T12:21:28.674Z,36.54
2023-04-05T12:23:55.765Z,36.60
2023-04-05T12:26:22.729Z,36.99
2023-04-05T12:28:53.673Z,36.70
2023-04-05T12:31:43.362Z,37.51
2023-04-05T12:34:11.670Z,36.93
2023-04-05T12:36:39.306Z,37.42
2023-04-05T12:39:09.432Z,37.12
2023-04-05T12:41:38.003Z,38.11
2023-04-05T12:44:28.056Z,38.40
2023-04-05T12:47:10.550Z,37.51
2023-04-05T12:49:55.549Z,39.12
2023-04-05T12:52:22.870Z,37.74
2023-04-05T12:54:55.885Z,37.07
2023-04-05T12:57:31.579Z,37.21
2023-04-05T12:59:58.523Z,37.34
2023-04-05T13:02:25.194Z,36.19
2023-04-05T13:04:51.875Z,36.76
2023-04-05T13:07:19.022Z,37.07
2023-04-05T13:09:45.878Z,37.19
2023-04-05T13:12:12.601Z,37.24
2023-04-05T13:14:39.318Z,36.86
2023-04-05T13:17:06.098Z,36.81
2023-04-05T13:19:33.107Z,37.23
2023-04-05T13:21:59.706Z,37.59
2023-04-05T13:24:26.409Z,37.31
2023-04-05T13:26:53.012Z,36.85
2023-04-05T13:29:23.053Z,37.19
2023-04-05T13:31:50.442Z,38.08
2023-04-05T13:34:17.109Z,37.42
2023-04-05T13:36:43.904Z,36.91
2023-04-05T13:39:10.617Z,37.65
2023-04-05T13:41:37.294Z,37.26
2023-04-05T13:44:06.464Z,36.95
2023-04-05T13:46:33.591Z,37.14
2023-04-05T13:49:00.175Z,37.77
2023-04-05T13:51:31.449Z,36.98
2023-04-05T13:53:58.252Z,35.77
2023-04-05T13:56:24.833Z,35.75
2023-04-05T13:58:51.875Z,36.09
2023-04-05T14:01:18.561Z,36.25
2023-04-05T14:03:45.320Z,36.20
2023-04-05T14:06:11.929Z,35.18
2023-04-05T14:08:41.649Z,35.75
2023-04-05T14:11:08.305Z,36.60
2023-04-05T14:13:35.562Z,36.45
2023-04-05T14:16:02.205Z,36.19
2023-04-05T14:18:28.969Z,36.16
2023-04-05T14:20:57.022Z,35.51
2023-04-05T14:23:24.049Z,35.99
2023-04-05T14:25:51.203Z,35.51
2023-04-05T14:28:17.841Z,35.43
2023-04-05T14:30:44.547Z,35.52
2023-04-05T14:33:11.472Z,35.66
2023-04-05T14:35:38.239Z,35.17
2023-04-05T14:38:04.926Z,35.13
2023-04-05T14:40:34.027Z,35.29
2023-04-05T14:43:00.766Z,35.25
2023-04-05T14:45:28.419Z,35.37
2023-04-05T14:47:58.470Z,35.21
2023-04-05T14:50:25.930Z,34.92
2023-04-05T14:52:55.609Z,34.82
2023-04-05T14:55:22.345Z,35.45
2023-04-05T14:57:52.250Z,35.51
2023-04-05T15:00:19.442Z,35.27
2023-04-05T15:02:46.766Z,35.15
2023-04-05T15:05:13.540Z,35.25
2023-04-05T15:07:40.329Z,35.14
2023-04-05T15:10:07.428Z,35.24
2023-04-05T15:12:34.410Z,34.69
2023-04-05T15:15:02.341Z,35.18
2023-04-05T15:17:29.224Z,34.68
2023-04-05T15:19:55.945Z,34.02
2023-04-05T15:22:23.588Z,34.00
2023-04-05T15:24:50.415Z,34.09
2023-04-05T15:27:17.069Z,33.91
2023-04-05T15:29:43.716Z,34.27
2023-04-05T15:32:10.383Z,34.61
2023-04-05T15:34:37.018Z,34.21
2023-04-05T15:37:03.689Z,33.69
2023-04-05T15:39:30.500Z,33.83
2023-04-05T15:41:57.981Z,33.82
2023-04-05T15:44:24.689Z,33.55
2023-04-05T15:46:51.546Z,33.20
2023-04-05T15:49:18.496Z,32.95
2023-04-05T15:51:45.661Z,33.12
2023-04-05T15:54:18.624Z,33.05
2023-04-05T15:56:45.821Z,33.33
2023-04-05T15:59:12.700Z,33.42
2023-04-05T16:01:39.639Z,34.16
2023-04-05T16:04:09.397Z,34.45
2023-04-05T16:06:36.406Z,33.63
2023-04-05T16:09:03.490Z,33.86
2023-04-05T16:11:31.084Z,33.72
2023-04-05T16:13:57.706Z,33.86
2023-04-05T16:16:35.153Z,34.04
2023-04-05T16:19:05.310Z,33.68
2023-04-05T16:21:32.270Z,33.87
2023-04-05T16:24:01.348Z,34.14
2023-04-05T16:26:30.743Z,33.79
2023-04-05T16:28:57.467Z,33.75
2023-04-05T16:31:24.227Z,33.34
2023-04-05T16:33:51.287Z,33.84
2023-04-05T16:36:18.004Z,33.76
2023-04-05T16:38:47.632Z,34.37
2023-04-05T16:41:23.943Z,34.60
2023-04-05T16:43:51.748Z,34.91
2023-04-05T16:46:18.735Z,34.82
2023-04-05T16:48:50.781Z,34.92
2023-04-05T16:51:17.938Z,34.80
2023-04-05T16:53:44.612Z,35.35
2023-04-05T16:56:11.501Z,35.57
2023-04-05T16:58:43.896Z,35.53
2023-04-05T17:01:12.993Z,35.41
2023-04-05T17:03:39.874Z,35.61
2023-04-05T17:06:06.837Z,35.38
2023-04-05T17:08:33.587Z,35.57
2023-04-05T17:11:02.857Z,35.63
2023-04-05T17:13:29.789Z,35.64
2023-04-05T17:15:56.541Z,36.02
2023-04-05T17:18:23.509Z,35.92
2023-04-05T17:20:52.302Z,35.77
2023-04-05T17:23:19.184Z,35.79
2023-04-05T17:25:46.031Z,36.25
2023-04-05T17:28:13.335Z,36.06
2023-04-05T17:30:40.119Z,35.69
2023-04-05T17:33:09.318Z,36.39
2023-04-05T17:35:36.959Z,36.26
2023-04-05T17:38:06.835Z,36.55
2023-04-05T17:40:33.617Z,36.33
2023-04-05T17:43:01.071Z,36.14
2023-04-05T17:45:32.070Z,36.51
2023-04-05T17:48:02.165Z,36.45
2023-04-05T17:50:36.680Z,36.51
2023-04-05T17:53:04.076Z,36.70
2023-04-05T17:55:41.900Z,36.92
2023-04-05T17:58:13.251Z,36.71
2023-04-05T18:00:40.158Z,36.41
2023-04-05T18:03:08.574Z,36.50
2023-04-05T18:05:35.842Z,36.72
2023-04-05T18:08:02.698Z,36.81
2023-04-05T18:10:29.567Z,36.63
2023-04-05T18:12:56.594Z,36.61
2023-04-05T18:15:23.569Z,37.03
2023-04-05T18:17:50.353Z,37.90
2023-04-05T18:20:17.113Z,38.18
2023-04-05T18:22:46.803Z,38.62
2023-04-05T18:25:13.744Z,38.88
2023-04-05T18:27:43.654Z,39.44
2023-04-05T18:30:11.562Z,39.70
2023-04-05T18:32:40.953Z,40.39
2023-04-05T18:35:09.940Z,40.43
2023-04-05T18:37:36.998Z,40.48
2023-04-05T18:40:04.462Z,40.50
2023-04-05T18:42:35.616Z,40.77
2023-04-05T18:45:03.328Z,41.18
2023-04-05T18:47:30.066Z,41.70
2023-04-05T18:49:57.032Z,41.42
2023-04-05T18:52:26.171Z,41.29
2023-04-05T18:54:53.658Z,40.76
2023-04-05T18:57:20.850Z,41.10
2023-04-05T18:59:47.682Z,41.03
2023-04-05T19:02:14.487Z,41.25
2023-04-05T19:04:41.261Z,40.96
2023-04-05T19:07:07.986Z,41.02
2023-04-05T19:09:38.641Z,41.15
2023-04-05T19:12:06.434Z,41.38
2023-04-05T19:14:33.356Z,41.57
2023-04-05T19:17:00.463Z,41.35
2023-04-05T19:19:28.310Z,41.02
2023-04-05T19:21:57.992Z,40.87
2023-04-05T19:24:25.787Z,40.89
2023-04-05T19:26:52.684Z,40.76
2023-04-05T19:29:19.742Z,41.04
2023-04-05T19:31:47.146Z,40.64
2023-04-05T19:34:13.909Z,41.03
2023-04-05T19:36:40.702Z,41.20
2023-04-05T19:39:07.947Z,41.42
2023-04-05T19:41:34.832Z,41.24
2023-04-05T19:44:35.037Z,41.75
2023-04-05T19:47:01.911Z,41.81
2023-04-05T19:49:39.150Z,41.94
2023-04-05T19:52:08.116Z,42.47
2023-04-05T19:54:36.805Z,42.42
2023-04-05T19:57:06.333Z,42.06
2023-04-05T19:59:35.942Z,41.93
2023-04-05T20:02:17.288Z,42.08
2023-04-05T20:04:44.782Z,42.45
2023-04-05T20:07:11.625Z,41.83
2023-04-05T20:09:40.270Z,41.92
2023-04-05T20:12:07.363Z,42.05
2023-04-05T20:14:42.640Z,42.10
2023-04-05T20:17:10.338Z,42.74
2023-04-05T20:19:40.661Z,42.67
2023-04-05T20:22:08.769Z,42.43
2023-04-05T20:24:39.827Z,42.69
2023-04-05T20:27:06.581Z,42.37
2023-04-05T20:29:33.563Z,42.36
2023-04-05T20:32:01.752Z,42.72
2023-04-05T20:34:33.077Z,42.65
2023-04-05T20:37:11.384Z,42.35
2023-04-05T20:39:38.247Z,42.97
2023-04-05T20:42:05.338Z,42.86
2023-04-05T20:44:31.996Z,43.07
2023-04-05T20:47:01.601Z,42.92
2023-04-05T20:49:28.276Z,43.35
2023-04-05T20:51:56.798Z,43.91
2023-04-05T20:54:24.499Z,43.68
2023-04-05T20:56:51.411Z,43.81
2023-04-05T20:59:18.110Z,43.79
2023-04-05T21:01:47.623Z,43.96
2023-04-05T21:04:14.754Z,44.15
2023-04-05T21:06:41.521Z,44.31
2023-04-05T21:09:08.958Z,44.71
2023-04-05T21:11:35.989Z,45.38
2023-04-05T21:14:02.730Z,45.23
2023-04-05T21:16:29.466Z,45.20
2023-04-05T21:18:56.294Z,45.67
2023-04-05T21:21:22.923Z,45.70
2023-04-05T21:23:50.214Z,46.20
2023-04-05T21:26:16.848Z,46.05
2023-04-05T21:28:43.539Z,46.39
2023-04-05T21:31:11.173Z,46.41
2023-04-05T21:33:37.894Z,46.51
2023-04-05T21:36:04.778Z,46.87
2023-04-05T21:38:33.701Z,47.29
2023-04-05T21:41:00.369Z,47.56
2023-04-05T21:43:27.051Z,47.38
2023-04-05T21:45:53.778Z,47.63
2023-04-05T21:48:20.437Z,47.86
2023-04-05T21:50:47.598Z,48.52
2023-04-05T21:53:14.796Z,48.44
2023-04-05T21:55:41.517Z,48.65
2023-04-05T21:58:08.337Z,48.68
2023-04-05T22:00:35.040Z,48.58
2023-04-05T22:03:02.222Z,49.04
2023-04-05T22:05:37.155Z,49.21
2023-04-05T22:08:06.052Z,49.32
2023-04-05T22:10:33.477Z,49.61
2023-04-05T22:13:00.233Z,49.38
2023-04-05T22:15:27.274Z,49.43
2023-04-05T22:17:54.064Z,49.70
2023-04-05T22:20:20.844Z,49.76
2023-04-05T22:22:47.970Z,49.82
2023-04-05T22:25:14.789Z,50.28
2023-04-05T22:27:42.086Z,50.12
2023-04-05T22:30:09.169Z,50.23
2023-04-05T22:32:36.461Z,50.26
2023-04-05T22:35:04.684Z,50.47
2023-04-05T22:37:35.885Z,50.20
2023-04-05T22:40:04.585Z,50.31
2023-04-05T22:42:31.711Z,50.41
2023-04-05T22:44:59.178Z,50.27
2023-04-05T22:47:27.488Z,50.77
2023-04-05T22:49:54.321Z,51.14
2023-04-05T22:52:21.318Z,51.31
2023-04-05T22:54:48.030Z,51.26
2023-04-05T22:57:14.783Z,51.87
2023-04-05T22:59:41.787Z,51.90
2023-04-05T23:02:09.896Z,51.79
2023-04-05T23:04:36.862Z,52.21
2023-04-05T23:07:03.651Z,51.50
2023-04-05T23:09:30.727Z,51.67
2023-04-05T23:11:57.582Z,51.57
2023-04-05T23:14:24.244Z,51.88
2023-04-05T23:16:50.882Z,52.01
2023-04-05T23:19:17.605Z,51.95
2023-04-05T23:21:44.432Z,52.23
2023-04-05T23:24:11.251Z,52.01
2023-04-05T23:26:38.332Z,51.65
2023-04-05T23:29:07.186Z,52.08
2023-04-05T23:31:34.334Z,52.18
2023-04-05T23:34:01.247Z,51.91
2023-04-05T23:36:28.985Z,51.96
2023-04-05T23:38:56.359Z,51.83
2023-04-05T23:41:23.293Z,51.81
2023-04-05T23:43:50.360Z,51.85
2023-04-05T23:46:17.546Z,51.93
2023-04-05T23:48:47.405Z,51.96
2023-04-05T23:51:15.280Z,52.08
2023-04-05T23:53:41.972Z,52.22
2023-04-05T23:56:09.164Z,52.57
2023-04-05T23:58:35.964Z,52.39
